createdAt,value
2019-03-27T00:04:46.920Z,2.77
2019-03-27T00:09:50.397Z,2.50
2019-03-27T00:14:54.215Z,2.80
2019-03-27T00:19:57.732Z,2.80
2019-03-27T00:25:01.209Z,2.35
2019-03-27T00:30:07.582Z,2.30
2019-03-27T00:35:11.298Z,2.33
2019-03-27T00:40:14.971Z,2.05
2019-03-27T00:45:26.344Z,2.47
2019-03-27T00:50:24.374Z,2.55
2019-03-27T00:55:30.001Z,2.12
2019-03-27T01:00:42.387Z,1.90
2019-03-27T01:05:45.964Z,2.15
2019-03-27T01:10:49.626Z,2.10
2019-03-27T01:15:53.155Z,1.98
2019-03-27T01:20:56.643Z,1.90
2019-03-27T01:26:00.144Z,1.80
2019-03-27T01:31:03.646Z,1.80
2019-03-27T01:36:07.354Z,1.92
2019-03-27T01:41:10.833Z,1.77
2019-03-27T01:46:15.047Z,1.80
2019-03-27T01:51:18.554Z,2.02
2019-03-27T01:56:22.019Z,1.80
2019-03-27T02:01:25.507Z,1.90
2019-03-27T02:06:29.036Z,1.62
2019-03-27T02:11:32.853Z,1.80
2019-03-27T02:16:36.340Z,1.80
2019-03-27T02:21:39.826Z,1.72
2019-03-27T02:26:44.109Z,1.60
2019-03-27T02:31:47.621Z,1.57
2019-03-27T02:36:51.168Z,1.90
2019-03-27T02:41:54.815Z,1.72
2019-03-27T02:46:58.363Z,1.60
2019-03-27T02:52:01.867Z,1.40
2019-03-27T02:57:05.428Z,1.77
2019-03-27T03:02:08.886Z,1.60
2019-03-27T03:07:12.353Z,1.60
2019-03-27T03:12:15.829Z,1.45
2019-03-27T03:17:19.369Z,1.60
2019-03-27T03:22:22.902Z,1.82
2019-03-27T03:27:26.395Z,1.80
2019-03-27T03:32:29.844Z,1.50
2019-03-27T03:37:34.878Z,1.50
2019-03-27T03:42:38.612Z,1.75
2019-03-27T03:47:42.241Z,1.75
2019-03-27T03:52:46.305Z,1.42
2019-03-27T03:57:50.381Z,1.70
2019-03-27T04:02:53.947Z,1.57
2019-03-27T04:07:57.434Z,1.55
2019-03-27T04:13:00.914Z,1.72
2019-03-27T04:18:04.596Z,1.85
2019-03-27T04:23:08.711Z,1.95
2019-03-27T04:28:12.221Z,2.02
2019-03-27T04:33:15.711Z,1.92
2019-03-27T04:38:19.423Z,1.60
2019-03-27T04:43:22.951Z,1.90
2019-03-27T04:48:27.231Z,1.67
2019-03-27T04:53:30.717Z,2.08
2019-03-27T04:58:34.194Z,1.70
2019-03-27T05:03:37.741Z,1.82
2019-03-27T05:08:41.225Z,1.82
2019-03-27T05:13:44.811Z,1.90
2019-03-27T05:18:48.354Z,2.15
2019-03-27T05:23:51.838Z,2.08
2019-03-27T05:28:55.377Z,2.00
2019-03-27T05:33:58.934Z,1.80
2019-03-27T05:39:02.415Z,1.72
2019-03-27T05:44:05.870Z,2.10
2019-03-27T05:49:09.573Z,1.72
2019-03-27T05:54:13.056Z,2.10
2019-03-27T05:59:16.625Z,2.10
2019-03-27T06:04:20.165Z,2.20
2019-03-27T06:09:23.627Z,2.40
2019-03-27T06:14:27.088Z,2.70
2019-03-27T06:19:30.580Z,2.22
2019-03-27T06:24:34.068Z,2.30
2019-03-27T06:29:37.618Z,46.60
2019-03-27T06:34:41.114Z,18.37
2019-03-27T06:39:44.589Z,12.25
2019-03-27T06:44:48.125Z,10.88
2019-03-27T06:49:51.656Z,9.43
2019-03-27T06:54:55.197Z,9.25
2019-03-27T06:59:58.738Z,7.92
2019-03-27T07:05:02.335Z,7.97
2019-03-27T07:10:07.007Z,7.20
2019-03-27T07:15:11.528Z,6.37
2019-03-27T07:20:15.345Z,6.28
2019-03-27T07:25:18.884Z,5.97
2019-03-27T07:30:22.400Z,5.92
2019-03-27T07:35:25.941Z,5.15
2019-03-27T07:40:29.429Z,5.60
2019-03-27T07:45:32.914Z,5.33
2019-03-27T07:50:37.638Z,4.90
2019-03-27T07:55:41.125Z,4.60
2019-03-27T08:00:44.654Z,4.30
2019-03-27T08:05:48.129Z,4.65
2019-03-27T08:10:51.677Z,4.67
2019-03-27T08:15:55.139Z,4.30
2019-03-27T08:20:58.627Z,4.05
2019-03-27T08:26:02.191Z,4.12
2019-03-27T08:31:05.949Z,3.87
2019-03-27T08:36:09.437Z,3.80
2019-03-27T08:41:12.953Z,3.52
2019-03-27T08:46:16.443Z,3.77
2019-03-27T08:51:20.205Z,3.30
2019-03-27T08:56:23.701Z,3.42
2019-03-27T09:01:27.196Z,3.70
2019-03-27T09:06:34.105Z,3.67
2019-03-27T09:11:35.955Z,3.20
2019-03-27T09:16:39.539Z,3.55
2019-03-27T09:21:43.122Z,3.12
2019-03-27T09:26:46.712Z,3.22
2019-03-27T09:31:50.210Z,2.90
2019-03-27T09:36:53.670Z,3.02
2019-03-27T09:41:57.149Z,3.08
2019-03-27T09:47:00.692Z,3.17
2019-03-27T09:52:04.158Z,2.83
2019-03-27T09:57:07.621Z,2.58
2019-03-27T10:02:11.136Z,3.08
2019-03-27T10:07:14.666Z,2.40
2019-03-27T10:12:18.124Z,2.45
2019-03-27T10:17:22.090Z,2.27
2019-03-27T10:22:25.557Z,2.40
2019-03-27T10:27:29.044Z,2.65
2019-03-27T10:32:32.542Z,2.60
2019-03-27T10:37:36.023Z,2.05
2019-03-27T10:42:39.831Z,2.70
2019-03-27T10:47:43.296Z,2.15
2019-03-27T10:52:46.840Z,2.47
2019-03-27T10:57:50.330Z,2.12
2019-03-27T11:02:53.799Z,2.00
2019-03-27T11:07:57.262Z,1.90
2019-03-27T11:13:00.769Z,2.17
2019-03-27T11:18:04.723Z,1.92
2019-03-27T11:23:08.205Z,2.25
2019-03-27T11:28:11.659Z,1.92
2019-03-27T11:33:15.154Z,1.92
2019-03-27T11:38:18.648Z,1.75
2019-03-27T11:43:22.158Z,2.10
2019-03-27T11:48:25.680Z,1.50
2019-03-27T11:53:29.277Z,1.90
2019-03-27T11:58:32.822Z,1.37
2019-03-27T12:03:36.307Z,1.30
2019-03-27T12:08:39.942Z,1.60
2019-03-27T12:13:43.494Z,1.65
2019-03-27T12:18:47.036Z,1.20
2019-03-27T12:23:50.574Z,1.55
2019-03-27T12:28:54.063Z,3.50
2019-03-27T12:33:57.570Z,5.42
2019-03-27T12:39:01.036Z,5.08
2019-03-27T12:44:04.567Z,5.75
2019-03-27T12:49:08.085Z,4.97
2019-03-27T12:54:11.646Z,4.25
2019-03-27T12:59:15.147Z,4.30
2019-03-27T13:04:18.719Z,3.70
2019-03-27T13:09:22.175Z,3.27
2019-03-27T13:14:25.656Z,3.40
2019-03-27T13:19:29.202Z,3.42
2019-03-27T13:24:32.674Z,2.95
2019-03-27T13:29:36.190Z,3.30
2019-03-27T13:34:39.824Z,3.08
2019-03-27T13:39:43.348Z,2.92
2019-03-27T13:44:46.900Z,2.75
2019-03-27T13:49:50.443Z,2.62
2019-03-27T13:54:53.995Z,2.70
2019-03-27T13:59:57.508Z,3.00
2019-03-27T14:05:01.053Z,2.25
2019-03-27T14:10:08.112Z,2.50
2019-03-27T14:15:12.730Z,2.77
2019-03-27T14:20:16.870Z,2.47
2019-03-27T14:25:22.039Z,2.80
2019-03-27T14:30:43.227Z,2.47
2019-03-27T14:35:46.951Z,2.67
2019-03-27T14:40:51.798Z,2.80
2019-03-27T14:45:55.304Z,2.40
2019-03-27T14:50:58.837Z,2.25
2019-03-27T14:56:02.312Z,1.85
2019-03-27T15:01:05.799Z,2.12
2019-03-27T15:06:09.266Z,2.40
2019-03-27T15:11:12.777Z,2.15
2019-03-27T15:16:16.330Z,2.12
2019-03-27T15:21:19.818Z,2.20
2019-03-27T15:26:23.310Z,2.40
2019-03-27T15:31:26.806Z,2.52
2019-03-27T15:36:30.277Z,2.60
2019-03-27T15:41:36.811Z,2.80
2019-03-27T15:46:40.287Z,2.58
2019-03-27T15:51:43.842Z,2.37
2019-03-27T15:56:47.446Z,2.70
2019-03-27T16:01:50.987Z,2.77
2019-03-27T16:06:54.515Z,2.45
2019-03-27T16:11:57.984Z,2.77
2019-03-27T16:17:12.734Z,2.52
2019-03-27T16:22:06.680Z,2.65
2019-03-27T16:27:10.209Z,3.00
2019-03-27T16:32:13.665Z,2.52
2019-03-27T16:37:17.180Z,2.47
2019-03-27T16:42:20.726Z,2.80
2019-03-27T16:47:24.230Z,3.25
2019-03-27T16:52:27.731Z,2.65
2019-03-27T16:57:31.269Z,3.20
2019-03-27T17:02:34.827Z,2.85
2019-03-27T17:07:38.294Z,2.83
2019-03-27T17:12:42.039Z,3.08
2019-03-27T17:17:45.622Z,3.25
2019-03-27T17:22:49.085Z,2.65
2019-03-27T17:27:55.598Z,3.05
2019-03-27T17:32:57.862Z,2.47
2019-03-27T17:38:01.427Z,2.95
2019-03-27T17:43:04.904Z,3.10
2019-03-27T17:48:08.707Z,2.60
2019-03-27T17:53:12.379Z,2.75
2019-03-27T17:58:15.841Z,2.85
2019-03-27T18:03:19.314Z,3.30
2019-03-27T18:08:22.858Z,2.87
2019-03-27T18:13:26.437Z,3.20
2019-03-27T18:18:29.939Z,3.20
2019-03-27T18:23:45.324Z,3.08
2019-03-27T18:28:38.663Z,2.55
2019-03-27T18:33:42.122Z,2.77
2019-03-27T18:38:45.961Z,2.77
2019-03-27T18:43:49.721Z,3.00
2019-03-27T18:48:53.278Z,2.52
2019-03-27T18:53:59.977Z,2.67
2019-03-27T18:59:02.037Z,2.70
2019-03-27T19:04:05.575Z,2.75
2019-03-27T19:09:09.767Z,2.77
2019-03-27T19:14:13.328Z,2.90
2019-03-27T19:19:16.876Z,2.85
2019-03-27T19:24:20.443Z,3.02
2019-03-27T19:29:23.938Z,3.20
2019-03-27T19:34:27.455Z,3.10
2019-03-27T19:39:31.019Z,2.62
2019-03-27T19:44:34.598Z,3.17
2019-03-27T19:49:38.145Z,3.00
2019-03-27T19:54:41.644Z,3.22
2019-03-27T19:59:45.262Z,3.35
2019-03-27T20:04:49.554Z,3.40
2019-03-27T20:09:53.053Z,2.90
2019-03-27T20:14:56.551Z,3.70
2019-03-27T20:20:00.044Z,3.25
2019-03-27T20:25:05.734Z,3.20
2019-03-27T20:30:12.381Z,3.55
2019-03-27T20:35:15.859Z,4.03
2019-03-27T20:40:19.561Z,3.75
2019-03-27T20:45:23.058Z,3.30
2019-03-27T20:50:27.147Z,3.60
2019-03-27T20:55:31.200Z,5.53
2019-03-27T21:00:35.267Z,5.60
2019-03-27T21:05:38.755Z,7.15
2019-03-27T21:10:42.272Z,8.15
2019-03-27T21:15:45.737Z,8.43
2019-03-27T21:20:49.202Z,9.28
2019-03-27T21:25:52.749Z,9.78
2019-03-27T21:30:56.234Z,10.28
2019-03-27T21:35:59.719Z,10.72
2019-03-27T21:41:03.212Z,10.90
2019-03-27T21:46:06.810Z,10.40
2019-03-27T21:51:10.289Z,10.60
2019-03-27T21:56:13.827Z,10.72
2019-03-27T22:01:17.323Z,10.80
2019-03-27T22:06:21.767Z,10.13
2019-03-27T22:11:25.283Z,10.82
2019-03-27T22:16:28.827Z,10.88
2019-03-27T22:21:32.295Z,10.28
2019-03-27T22:26:35.810Z,10.63
2019-03-27T22:31:39.382Z,11.60
2019-03-27T22:36:42.873Z,11.15
2019-03-27T22:41:46.460Z,11.00
2019-03-27T22:46:49.941Z,11.50
2019-03-27T22:51:53.494Z,10.85
2019-03-27T22:56:56.979Z,11.08
2019-03-27T23:02:00.572Z,10.70
2019-03-27T23:07:04.523Z,10.85
2019-03-27T23:12:08.418Z,11.38
2019-03-27T23:17:12.014Z,10.20
2019-03-27T23:22:15.559Z,10.28
2019-03-27T23:27:19.081Z,10.75
2019-03-27T23:32:22.561Z,10.53
2019-03-27T23:37:26.048Z,10.43
2019-03-27T23:42:29.790Z,9.50
2019-03-27T23:47:33.303Z,9.25
2019-03-27T23:52:37.165Z,8.38
2019-03-27T23:57:40.708Z,8.25
